KBWD/BWD METAR and TAF weather

Enter ICAO airport designator
Station Type Date Time Source
KBWD METAR 2018/10/22 16:15 UTC NOAA

KBWD 221615Z AUTO 21004KT 10SM SCT110 16/08 A3023 RMK AO2 PWINO PNO


Station Type Date Time Source
KBWD Decoded METAR 2018/10/22 16:15 UTC NOAA

Brownwood, Brownwood Regional Airport, TX, United States (KBWD) 31-48N 098-57W
Oct 22, 2018 - 12:15 PM EDT / 2018.10.22 1615 UTC
Wind: from the SSW (210 degrees) at 5 MPH (4 KT):0
Visibility: 10 mile(s):0
Sky conditions: partly cloudy
Temperature: 60 F (16 C)
Dew Point: 46 F (8 C)
Relative Humidity: 58%
Pressure (altimeter): 30.23 in. Hg (1023 hPa)
ob: KBWD 221615Z AUTO 21004KT 10SM SCT110 16/08 A3023 RMK AO2 PWINO PNO
cycle: 16

Station Type Date Time Source
KBWD TAF UTC NOAA

Error!


Example: see airport list